logo
Games tagged Golf
# Game Release date
Price
Score rank
(Userscore / Metascore)
Owners
Players
Playtime (Median)
Developer(s)
Publisher(s)
1 PGA TOUR 2K21 Aug 20, 2020 $59.99N/A (N/A/77%)200,000 .. 500,00010.53%03:08 (02:05)HB Studios Multimedia Ltd.2K
2 The Golf Club 2019 featuring PGA TOUR Aug 28, 2018 $49.99N/A (N/A/72%)50,000 .. 100,0000%00:00 (00:00)HB Studios Multimedia Ltd.2K
3 The Golf Club Aug 19, 2014 $29.99N/A (N/A/70%)50,000 .. 100,0000%00:00 (00:00)HB StudiosHB Studios
4 Super Inefficient Golf Mar 15, 2018 $4.99N/A (N/A/69%)0 .. 20,0000%00:00 (00:00)34BigThings srl34BigThings srl
5 Vertiginous Golf Mar 7, 2014 $9.99N/A (N/A/63%)200,000 .. 500,0000%00:00 (00:00)Kinelco & Lone Elk CreativeFellow Traveller
6 Shot Online Jan 22, 2019 N/AN/A (N/A/59%)20,000 .. 50,0000%00:00 (00:00)WEBZEN ONNETWEBZEN
7 Dangerous Golf Jun 2, 2016 $19.99N/A (N/A/54%)100,000 .. 200,0000%00:00 (00:00)Three Fields EntertainmentThree Fields Entertainment
8 MiniGolf Mania Mar 25, 2016 N/AN/A (N/A)20,000 .. 50,0000%00:00 (00:00)Road Turtle GamesAxis Games
9 Winning Putt: Golf Online Oct 25, 2016 N/AN/A (N/A)100,000 .. 200,0000%00:00 (00:00)WEBZENONNET Co., Ltd.BANDAI NAMCO Entertainment America
10 Golf It! Feb 17, 2017 $8.99N/A (N/A)1,000,000 .. 2,000,0002.42%00:44 (00:36)Perfuse EntertainmentPerfuse Entertainment
11 The Golf Club 2 Jun 27, 2017 N/AN/A (N/A)50,000 .. 100,0000%00:00 (00:00)HB StudiosMaximum Games
12 Infinite Mini Golf Jul 25, 2017 $14.99N/A (N/A)20,000 .. 50,0000%00:00 (00:00)Zen StudiosZen Studios
13 Dream Golf VR Nov 3, 2017 FreeN/A (N/A)100,000 .. 200,0000%00:00 (00:00)Isaac StearnsIsaac Stearns
14 Wonder Wickets Oct 17, 2018 $9.99N/A (N/A)0 .. 20,0000%00:00 (00:00)Rightstick StudiosRightstick Studios
15 WGT Golf Apr 13, 2020 FreeN/A (N/A)200,000 .. 500,0000%00:00 (00:00)Topgolf MediaTopgolf Media
16 Golf With Your Friends May 19, 2020 $14.99N/A (N/A)2,000,000 .. 5,000,0005.3%02:10 (03:36)Blacklight InteractiveTeam17
17 EnviroGolf Jan 15, 2014 FreeN/A (N/A)0 .. 20,0000%00:00 (00:00)Seemingly PointlessSeemingly Pointless
18 Tee Time Golf Aug 31, 2018 $9.99N/A (N/A)0 .. 20,0000%00:00 (00:00)Barkers Crest Studio LLCBarkers Crest Studio LLC
19 Smoots Golf Nov 18, 2021 $9.99N/A (N/A)0 .. 20,0000%00:00 (00:00)Kaneda GamesJanduSoft
20 Knockball pool Nov 7, 2021 $2.99N/A (N/A)0 .. 20,0000%00:00 (00:00)LGT SIALGT SIA
21 Golfing Over It with Alva Majo Mar 28, 2018 $4.99N/A (N/A)50,000 .. 100,0000%00:00 (00:00)MajorariattoMajorariatto
22 Trivia Vault: Golf Trivia Mar 29, 2018 $0.99N/A (N/A)0 .. 20,0000%00:00 (00:00)Ripknot SystemsRipknot Systems
23 Mini Golf Arena Apr 21, 2018 $8.99N/A (N/A)0 .. 20,0000%00:00 (00:00)Evoluta StudioEvoluta Studio
24 RPGolf May 9, 2018 $3.99N/A (N/A)0 .. 20,0000%00:00 (00:00)ArticNetChorus Worldwide Games
25 Golf Galore Jul 12, 2018 $0.99N/A (N/A)50,000 .. 100,0000%00:00 (00:00)Golf Around Studio (Legacy)Golf Around Studio (Legacy)
26 Arcane Golf Jul 26, 2018 $2.99N/A (N/A)0 .. 20,0000%00:00 (00:00)FromLefcourt, thatgregperkinsFromLefcourt, thatgregperkins
27 The Master Club Oct 11, 2018 $4.99N/A (N/A)0 .. 20,0000%00:00 (00:00)Midi CreationsMidi Creations
28 Ballistic Mini Golf Oct 24, 2017 $4.99N/A (N/A)0 .. 20,0000%00:00 (00:00)Microlith GamesMicrolith Games
29 A Little Golf Journey Oct 14, 2021 $19.99N/A (N/A)0 .. 20,0000%00:00 (00:00)OkidokicoPlaytonic Friends
30 Cheap Golf Nov 5, 2018 $4.99N/A (N/A)0 .. 20,0000%00:00 (00:00)PixeljamPixeljam
31 Nice Shot! The Gun Golfing Game Nov 9, 2018 $6.99N/A (N/A)0 .. 20,0000%00:00 (00:00)PolyGryph StudiosPolyGryph Studios
32 Golf Peaks Nov 13, 2018 $4.99N/A (N/A)50,000 .. 100,0000%00:00 (00:00)AfterburnAfterburn
33 Mini Golf Buddies Dec 18, 2018 $4.99N/A (N/A)0 .. 20,0000%00:00 (00:00)Obumo GamesObumo Games
34 Me Vs You Sep 24, 2021 $15.99N/A (N/A)20,000 .. 50,0000%00:00 (00:00)Amped HorizonAmped Horizon
35 Puttin' Around Mar 6, 2019 $4.99N/A (N/A)0 .. 20,0000%00:00 (00:00)Better Games LLCBetter Games LLC
36 100ft Robot Golf Mar 16, 2017 $9.99N/A (N/A)20,000 .. 50,0000%00:00 (00:00)No GoblinNo Goblin
37 3D MiniGolf May 29, 2015 $4.99N/A (N/A)0 .. 20,0000%00:00 (00:00)Z-Software GmbHfamilyplay
38 Cloudlands : VR Minigolf Apr 5, 2016 $19.99N/A (N/A)0 .. 20,0000%00:00 (00:00)FuturetownFuturetown
39 Perfect Golf May 3, 2016 $34.99N/A (N/A)100,000 .. 200,0000%00:00 (00:00)PERFECT PARALLELPerfect.Golf, Inc.
40 Mini Golf Mundo May 10, 2016 $2.99N/A (N/A)50,000 .. 100,0000%00:00 (00:00)EnsenaSoftEnsenaSoft
41 Desert Golfing Dec 18, 2017 $1.99N/A (N/A)0 .. 20,0000%00:00 (00:00)Captain GamesCaptain Games
42 Party Golf Oct 25, 2016 $14.99N/A (N/A)0 .. 20,0000%00:00 (00:00)Giant MargaritaGiant Margarita
43 Worms Crazy Golf Oct 19, 2011 $9.99N/A (N/A)200,000 .. 500,0000%00:00 (00:00)Team17 Digital LtdTeam17 Digital Ltd
44 The Golf Club VR Feb 24, 2017 $9.99N/A (N/A)20,000 .. 50,0000%00:00 (00:00)HB StudiosHB Studios
45 MiniGolf Mar 29, 2019 $2.99N/A (N/A)0 .. 20,0000%00:00 (00:00)Meridian93 StudioHH-Games
46 Golf for Workgroups Apr 6, 2017 $4.99N/A (N/A)0 .. 20,0000%00:00 (00:00)Cryptic SeaDevolver Digital
47 Virtual Islands Sep 9, 2016 $3.99N/A (N/A)0 .. 20,0000%00:00 (00:00)Tim McCullochTim McCulloch
48 3D Ultra Minigolf Adventures Jul 23, 2009 $3.29N/A (N/A)0 .. 20,0000%00:00 (00:00)Wanako GamesActivision
49 Everyday Golf VR Jul 12, 2017 $29.99N/A (N/A)0 .. 20,0000%00:00 (00:00)WISECATWISECAT
50 Mini Golf Worlds VR Jan 11, 2022 $14.99N/A (N/A)0 .. 20,0000%00:00 (00:00)Maple Hill GamesMaple Hill Games
51 DOG GONE GOLFING Aug 25, 2017 $4.99N/A (N/A)0 .. 20,0000%00:00 (00:00)Vagabond DogVagabond Dog
52 Golf 2D Oct 17, 2017 $0.49N/A (N/A)20,000 .. 50,0000%00:00 (00:00)RewindAppRewindApp
53 Graviter Apr 8, 2021 $7.99N/A (N/A)0 .. 20,0000%00:00 (00:00)Emil MarkiewiczNo Gravity Games
54 Off The Chains Disc Golf Nov 12, 2020 $14.99N/A (N/A)0 .. 20,0000%00:00 (00:00)Dream NerdyDream Nerdy
55 Puzzling Peaks EXE Dec 1, 2020 $1.99N/A (N/A)0 .. 20,0000%00:00 (00:00)Darius Immanuel D. GuerreroAppSir, Inc.
56 Golf Around! Dec 4, 2020 $4.99N/A (N/A)20,000 .. 50,0000%00:00 (00:00)Steve HoughSteve Hough
57 Macro golf Dec 14, 2020 $19.99N/A (N/A)0 .. 20,0000%00:00 (00:00)VitokVitok
58 Golf Party Jan 29, 2021 $9.99N/A (N/A)0 .. 20,0000%00:00 (00:00)VoidFiller StudiosVoidFiller Studios
59 All-In-One Sports VR Feb 25, 2021 $13.99N/A (N/A)0 .. 20,0000%00:00 (00:00)Appnori Inc.Appnori Inc.
60 Mage Drops Mar 19, 2021 $12.99N/A (N/A)0 .. 20,0000%00:00 (00:00)Orchid of RedemptionLamplight Forest
61 GolfTopia Mar 30, 2021 $19.99N/A (N/A)20,000 .. 50,0000%00:00 (00:00)MinMax Games Ltd.MinMax Games Ltd.
62 Fort Golf Sep 1, 2020 $2.99N/A (N/A)0 .. 20,0000%00:00 (00:00)Chromatic Junkyard StudiosChromatic Junkyard Studios
63 Speedy Golf May 5, 2021 $14.99N/A (N/A)0 .. 20,0000%00:00 (00:00)Off The Deck GamesOff The Deck Games
64 Golf With Your Grandmother May 6, 2021 $4.99N/A (N/A)0 .. 20,0000%00:00 (00:00)NevsramNevsram
65 Disc Golf Valley VR May 19, 2021 $19.99N/A (N/A)0 .. 20,0000%00:00 (00:00)Latitude 64Latitude 64
66 Santa Soccer May 21, 2021 $0.99N/A (N/A)20,000 .. 50,0000%00:00 (00:00)Halara StudiosHalara Studios
67 OGgolf May 29, 2021 $7.99N/A (N/A)0 .. 20,0000%00:00 (00:00)TecmibaTecmiba
68 Brian the Brain Jun 3, 2021 $0.99N/A (N/A)0 .. 20,0000%00:00 (00:00)Richard BorgesRichard Borges
69 Overlay Balls & Mouse Tails Jun 4, 2021 $1.99N/A (N/A)0 .. 20,0000%00:00 (00:00)SAG, SAGSAG
70 Disc Golf Valley Jun 9, 2021 $4.99N/A (N/A)0 .. 20,0000%00:00 (00:00)Latitude 64Latitude 64
71 disc party Apr 30, 2020 $2.99N/A (N/A)0 .. 20,0000%00:00 (00:00)Sokpop CollectiveSokpop Collective
72 Resort Boss: Golf Feb 14, 2019 $12.99N/A (N/A)20,000 .. 50,0000%00:00 (00:00)Gus MartinExcalibur Games
73 Golf98 Oct 17, 2019 $0.99N/A (N/A)0 .. 20,0000%00:00 (00:00)Studio InwardStudio Inward
74 Bolf Nov 19, 2019 $7.99N/A (N/A)0 .. 20,0000%00:00 (00:00)SimTeneroSimTenero
75 GOLF in PAPER Apr 5, 2019 $1.99N/A (N/A)0 .. 20,0000%00:00 (00:00)meokigamemeokigame
76 Encore Card Games Collection Dec 20, 2019 $19.99N/A (N/A)0 .. 20,0000%00:00 (00:00)WebfootEncore Software
77 Cloudlands 2 Jan 17, 2020 $19.99N/A (N/A)0 .. 20,0000%00:00 (00:00)FuturetownFuturetown
78 Perfect Round Disc Golf Mar 12, 2020 $19.99N/A (N/A)0 .. 20,0000%00:00 (00:00)Tree Branch GamesTree Branch Games
79 Casual Golf Aug 16, 2021 $0.99N/A (N/A)20,000 .. 50,0000%00:00 (00:00)NikiGamesNikiGames
80 Walkabout Mini Golf VR Jul 15, 2021 $14.99N/A (N/A)50,000 .. 100,0000%00:00 (00:00)Mighty CoconutMighty Coconut
81 Just Like Golf May 15, 2020 $1.99N/A (N/A)0 .. 20,0000%00:00 (00:00)SÚRSPILSÚRSPIL
82 EPEJSODION Lodge Jul 30, 2021 $4.99N/A (N/A)0 .. 20,0000%00:00 (00:00)Tadeusz LorkowskiTadeusz Lorkowski
83 Mini Golf Club May 29, 2020 $14.99N/A (N/A)0 .. 20,0000%00:00 (00:00)Obumo GamesObumo Games
84 Shuffs Jun 29, 2020 $2.99N/A (N/A)0 .. 20,0000%00:00 (00:00)Kyle HoskingNo Relation Games
85 Golf On Mars Jul 3, 2020 $2.99N/A (N/A)0 .. 20,0000%00:00 (00:00)Captain GamesCaptain Games
86 Golf Masters Jul 13, 2020 $9.99N/A (N/A)0 .. 20,0000%00:00 (00:00)Ghost MachineGhost Machine
87 Mighty Fling Jul 20, 2020 $9.99N/A (N/A)0 .. 20,0000%00:00 (00:00)Hollow Art StudiosHollow Art Studios
88 Eggy Jul 20, 2021 $10.99N/A (N/A)0 .. 20,0000%00:00 (00:00)Glenn VerheijKjoeb
Overview

Golf

Games with this tag: 88
Average userscore: N/A%
Average metascore: 66.29%
Average playtime: 02:01
Total copies owned: 7,270,000
Average price: $10.46
Help

Owners: Estimated number of people owning this game. The number might be way too small for new releases and sometimes way too big for games that had free weekend event recently. Read more on About page.

Playtime: Average hours played in total per person that have actually launched this game since March 2009. This time is calculated for the whole lifetime, not for the particular year.

Average score: Average users and metacritic score for all games with this score assigned.

Average playtime: Average lifetime playtime for all games where this data is available.

Games in this genre: Self-explaining - number of games with this tag. Only inculdes games with sales data available.

Total copies owned: Refers to total copies of games with this tag acquired by users for the lifetime. Includes copies sold, downloaded for free and given out.

This number might be too small for recently released games or too big for games that had a free weekend in the last couple of months.

Graphs

Login required.

Please register or log in to see this information.

Login required.

Please register or log in to see this information.